sensor_id;sensor_type;location;lat;lon;timestamp;P1;durP1;ratioP1;P2;durP2;ratioP2
24143;SDS011;12307;50.828;6.080;2023-03-01T00:02:16;1.10;;;1.00;;
24143;SDS011;12307;50.828;6.080;2023-03-01T00:04:41;1.30;;;1.20;;
24143;SDS011;12307;50.828;6.080;2023-03-01T00:07:08;1.05;;;0.95;;
24143;SDS011;12307;50.828;6.080;2023-03-01T00:09:35;1.70;;;1.30;;
24143;SDS011;12307;50.828;6.080;2023-03-01T00:12:01;1.10;;;1.00;;
24143;SDS011;12307;50.828;6.080;2023-03-01T00:14:27;1.13;;;1.02;;
24143;SDS011;12307;50.828;6.080;2023-03-01T00:16:53;1.58;;;1.13;;
24143;SDS011;12307;50.828;6.080;2023-03-01T00:19:19;1.20;;;1.10;;
24143;SDS011;12307;50.828;6.080;2023-03-01T00:21:45;1.50;;;1.30;;
24143;SDS011;12307;50.828;6.080;2023-03-01T00:24:12;1.23;;;1.13;;
24143;SDS011;12307;50.828;6.080;2023-03-01T00:26:38;1.50;;;1.40;;
24143;SDS011;12307;50.828;6.080;2023-03-01T00:29:03;1.30;;;1.20;;
24143;SDS011;12307;50.828;6.080;2023-03-01T00:31:30;1.23;;;1.10;;
24143;SDS011;12307;50.828;6.080;2023-03-01T00:33:59;1.42;;;1.10;;
24143;SDS011;12307;50.828;6.080;2023-03-01T00:36:26;2.53;;;1.30;;
24143;SDS011;12307;50.828;6.080;2023-03-01T00:38:53;1.45;;;1.17;;
24143;SDS011;12307;50.828;6.080;2023-03-01T00:41:20;1.75;;;1.30;;
24143;SDS011;12307;50.828;6.080;2023-03-01T00:43:51;1.17;;;1.08;;
24143;SDS011;12307;50.828;6.080;2023-03-01T00:46:18;1.33;;;1.10;;
24143;SDS011;12307;50.828;6.080;2023-03-01T00:48:45;1.48;;;1.17;;
24143;SDS011;12307;50.828;6.080;2023-03-01T00:51:11;1.40;;;1.30;;
24143;SDS011;12307;50.828;6.080;2023-03-01T00:53:38;1.13;;;1.02;;
24143;SDS011;12307;50.828;6.080;2023-03-01T00:56:05;1.48;;;1.25;;
24143;SDS011;12307;50.828;6.080;2023-03-01T00:58:33;1.40;;;1.30;;
24143;SDS011;12307;50.828;6.080;2023-03-01T01:01:00;1.33;;;1.20;;
24143;SDS011;12307;50.828;6.080;2023-03-01T01:03:27;1.33;;;1.10;;
24143;SDS011;12307;50.828;6.080;2023-03-01T01:05:53;1.80;;;1.30;;
24143;SDS011;12307;50.828;6.080;2023-03-01T01:08:19;1.35;;;1.20;;
24143;SDS011;12307;50.828;6.080;2023-03-01T01:10:44;1.30;;;1.20;;
24143;SDS011;12307;50.828;6.080;2023-03-01T01:13:10;1.27;;;1.17;;
24143;SDS011;12307;50.828;6.080;2023-03-01T01:15:37;1.80;;;1.38;;
24143;SDS011;12307;50.828;6.080;2023-03-01T01:18:03;1.30;;;1.17;;
24143;SDS011;12307;50.828;6.080;2023-03-01T01:20:29;1.20;;;1.10;;
24143;SDS011;12307;50.828;6.080;2023-03-01T01:22:55;1.30;;;1.20;;
24143;SDS011;12307;50.828;6.080;2023-03-01T01:25:20;1.60;;;1.30;;
24143;SDS011;12307;50.828;6.080;2023-03-01T01:27:46;1.50;;;1.40;;
24143;SDS011;12307;50.828;6.080;2023-03-01T01:30:12;1.42;;;1.20;;
24143;SDS011;12307;50.828;6.080;2023-03-01T01:32:39;1.48;;;1.30;;
24143;SDS011;12307;50.828;6.080;2023-03-01T01:35:05;1.40;;;1.30;;
24143;SDS011;12307;50.828;6.080;2023-03-01T01:37:31;1.30;;;1.20;;
24143;SDS011;12307;50.828;6.080;2023-03-01T01:39:59;1.17;;;1.08;;
24143;SDS011;12307;50.828;6.080;2023-03-01T01:42:26;1.40;;;1.30;;
24143;SDS011;12307;50.828;6.080;2023-03-01T01:47:54;1.55;;;1.13;;
24143;SDS011;12307;50.828;6.080;2023-03-01T01:50:22;1.30;;;1.20;;
24143;SDS011;12307;50.828;6.080;2023-03-01T01:52:50;1.55;;;1.35;;
24143;SDS011;12307;50.828;6.080;2023-03-01T01:55:18;1.30;;;1.10;;
24143;SDS011;12307;50.828;6.080;2023-03-01T01:57:48;1.40;;;1.30;;
24143;SDS011;12307;50.828;6.080;2023-03-01T02:00:18;2.30;;;1.33;;
24143;SDS011;12307;50.828;6.080;2023-03-01T02:02:46;1.50;;;1.40;;
24143;SDS011;12307;50.828;6.080;2023-03-01T02:05:19;1.20;;;1.05;;
24143;SDS011;12307;50.828;6.080;2023-03-01T02:07:53;1.20;;;1.10;;
24143;SDS011;12307;50.828;6.080;2023-03-01T02:10:19;1.85;;;1.48;;
24143;SDS011;12307;50.828;6.080;2023-03-01T02:12:48;1.48;;;1.20;;
24143;SDS011;12307;50.828;6.080;2023-03-01T02:15:13;1.35;;;1.23;;
24143;SDS011;12307;50.828;6.080;2023-03-01T02:17:39;1.13;;;1.00;;
24143;SDS011;12307;50.828;6.080;2023-03-01T02:20:08;1.25;;;1.15;;
24143;SDS011;12307;50.828;6.080;2023-03-01T02:22:40;1.52;;;1.42;;
24143;SDS011;12307;50.828;6.080;2023-03-01T02:25:12;2.35;;;1.45;;
24143;SDS011;12307;50.828;6.080;2023-03-01T02:27:58;1.20;;;1.10;;
24143;SDS011;12307;50.828;6.080;2023-03-01T02:30:31;1.23;;;1.05;;
24143;SDS011;12307;50.828;6.080;2023-03-01T02:32:57;1.40;;;1.20;;
24143;SDS011;12307;50.828;6.080;2023-03-01T02:35:27;1.33;;;1.23;;
24143;SDS011;12307;50.828;6.080;2023-03-01T02:37:55;1.23;;;1.10;;
24143;SDS011;12307;50.828;6.080;2023-03-01T02:40:22;1.40;;;1.20;;
24143;SDS011;12307;50.828;6.080;2023-03-01T02:42:49;1.92;;;1.52;;
24143;SDS011;12307;50.828;6.080;2023-03-01T02:45:18;1.45;;;1.20;;
24143;SDS011;12307;50.828;6.080;2023-03-01T02:47:46;1.27;;;1.17;;
24143;SDS011;12307;50.828;6.080;2023-03-01T02:50:19;1.30;;;1.20;;
24143;SDS011;12307;50.828;6.080;2023-03-01T02:52:56;1.40;;;1.20;;
24143;SDS011;12307;50.828;6.080;2023-03-01T02:55:27;1.67;;;1.30;;
24143;SDS011;12307;50.828;6.080;2023-03-01T02:57:53;1.10;;;1.00;;
24143;SDS011;12307;50.828;6.080;2023-03-01T03:00:21;1.98;;;1.40;;
24143;SDS011;12307;50.828;6.080;2023-03-01T03:02:51;1.35;;;1.25;;
24143;SDS011;12307;50.828;6.080;2023-03-01T03:05:19;1.63;;;1.40;;
24143;SDS011;12307;50.828;6.080;2023-03-01T03:07:46;1.75;;;1.30;;
24143;SDS011;12307;50.828;6.080;2023-03-01T03:10:14;1.40;;;1.30;;
24143;SDS011;12307;50.828;6.080;2023-03-01T03:12:41;1.65;;;1.25;;
24143;SDS011;12307;50.828;6.080;2023-03-01T03:15:08;2.03;;;1.58;;
24143;SDS011;12307;50.828;6.080;2023-03-01T03:17:37;1.45;;;1.35;;
24143;SDS011;12307;50.828;6.080;2023-03-01T03:20:06;1.38;;;1.27;;
24143;SDS011;12307;50.828;6.080;2023-03-01T03:22:36;1.90;;;1.40;;
24143;SDS011;12307;50.828;6.080;2023-03-01T03:25:03;1.27;;;1.10;;
24143;SDS011;12307;50.828;6.080;2023-03-01T03:27:29;1.25;;;1.15;;
24143;SDS011;12307;50.828;6.080;2023-03-01T03:29:56;1.50;;;1.40;;
24143;SDS011;12307;50.828;6.080;2023-03-01T03:32:22;1.33;;;1.23;;
24143;SDS011;12307;50.828;6.080;2023-03-01T03:34:48;1.20;;;1.10;;
24143;SDS011;12307;50.828;6.080;2023-03-01T03:37:15;1.30;;;1.20;;
24143;SDS011;12307;50.828;6.080;2023-03-01T03:39:59;1.60;;;1.30;;
24143;SDS011;12307;50.828;6.080;2023-03-01T03:42:25;1.35;;;1.25;;
24143;SDS011;12307;50.828;6.080;2023-03-01T03:44:51;1.40;;;1.30;;
24143;SDS011;12307;50.828;6.080;2023-03-01T03:47:17;1.65;;;1.30;;
24143;SDS011;12307;50.828;6.080;2023-03-01T03:49:42;1.42;;;1.30;;
24143;SDS011;12307;50.828;6.080;2023-03-01T03:52:08;1.40;;;1.30;;
24143;SDS011;12307;50.828;6.080;2023-03-01T03:54:39;1.30;;;1.20;;
24143;SDS011;12307;50.828;6.080;2023-03-01T03:57:05;1.35;;;1.20;;
24143;SDS011;12307;50.828;6.080;2023-03-01T03:59:31;1.30;;;1.10;;
24143;SDS011;12307;50.828;6.080;2023-03-01T04:01:56;1.52;;;1.35;;
24143;SDS011;12307;50.828;6.080;2023-03-01T04:04:22;1.42;;;1.30;;
24143;SDS011;12307;50.828;6.080;2023-03-01T04:06:48;1.45;;;1.30;;
24143;SDS011;12307;50.828;6.080;2023-03-01T04:09:13;1.38;;;1.23;;
24143;SDS011;12307;50.828;6.080;2023-03-01T04:11:41;2.35;;;1.10;;
24143;SDS011;12307;50.828;6.080;2023-03-01T04:14:06;1.70;;;1.42;;
24143;SDS011;12307;50.828;6.080;2023-03-01T04:16:32;2.05;;;1.58;;
24143;SDS011;12307;50.828;6.080;2023-03-01T04:18:57;1.98;;;1.33;;
24143;SDS011;12307;50.828;6.080;2023-03-01T04:21:25;1.70;;;1.50;;
24143;SDS011;12307;50.828;6.080;2023-03-01T04:23:51;1.70;;;1.20;;
24143;SDS011;12307;50.828;6.080;2023-03-01T04:26:17;1.42;;;1.13;;
24143;SDS011;12307;50.828;6.080;2023-03-01T04:28:45;1.48;;;1.30;;
24143;SDS011;12307;50.828;6.080;2023-03-01T04:31:13;1.35;;;1.20;;
24143;SDS011;12307;50.828;6.080;2023-03-01T04:33:43;1.30;;;1.20;;
24143;SDS011;12307;50.828;6.080;2023-03-01T04:36:11;1.38;;;1.27;;
24143;SDS011;12307;50.828;6.080;2023-03-01T04:38:38;1.50;;;1.10;;
24143;SDS011;12307;50.828;6.080;2023-03-01T04:41:04;1.88;;;1.23;;
24143;SDS011;12307;50.828;6.080;2023-03-01T04:43:31;1.33;;;1.23;;
24143;SDS011;12307;50.828;6.080;2023-03-01T04:46:00;1.63;;;1.50;;
24143;SDS011;12307;50.828;6.080;2023-03-01T04:48:27;1.58;;;1.48;;
24143;SDS011;12307;50.828;6.080;2023-03-01T04:50:53;1.48;;;1.23;;
24143;SDS011;12307;50.828;6.080;2023-03-01T04:53:19;1.55;;;1.23;;
24143;SDS011;12307;50.828;6.080;2023-03-01T04:55:44;1.27;;;1.17;;
24143;SDS011;12307;50.828;6.080;2023-03-01T04:58:10;1.10;;;1.00;;
24143;SDS011;12307;50.828;6.080;2023-03-01T05:00:36;1.40;;;1.23;;
24143;SDS011;12307;50.828;6.080;2023-03-01T05:03:03;1.35;;;1.25;;
24143;SDS011;12307;50.828;6.080;2023-03-01T05:05:30;2.58;;;1.10;;
24143;SDS011;12307;50.828;6.080;2023-03-01T05:07:57;1.33;;;1.23;;
24143;SDS011;12307;50.828;6.080;2023-03-01T05:10:25;1.40;;;1.30;;
24143;SDS011;12307;50.828;6.080;2023-03-01T05:12:51;1.52;;;1.42;;
24143;SDS011;12307;50.828;6.080;2023-03-01T05:15:18;1.50;;;1.40;;
24143;SDS011;12307;50.828;6.080;2023-03-01T05:17:44;1.30;;;1.20;;
24143;SDS011;12307;50.828;6.080;2023-03-01T05:20:12;1.38;;;1.27;;
24143;SDS011;12307;50.828;6.080;2023-03-01T05:22:38;1.60;;;1.40;;
24143;SDS011;12307;50.828;6.080;2023-03-01T05:25:04;1.98;;;1.40;;
24143;SDS011;12307;50.828;6.080;2023-03-01T05:27:30;1.45;;;1.35;;
24143;SDS011;12307;50.828;6.080;2023-03-01T05:29:56;1.27;;;1.15;;
24143;SDS011;12307;50.828;6.080;2023-03-01T05:32:22;1.55;;;1.40;;
24143;SDS011;12307;50.828;6.080;2023-03-01T05:34:47;1.80;;;1.40;;
24143;SDS011;12307;50.828;6.080;2023-03-01T05:37:14;1.35;;;1.20;;
24143;SDS011;12307;50.828;6.080;2023-03-01T05:39:41;1.27;;;1.17;;
24143;SDS011;12307;50.828;6.080;2023-03-01T05:42:09;1.20;;;1.10;;
24143;SDS011;12307;50.828;6.080;2023-03-01T05:44:35;1.35;;;1.25;;
24143;SDS011;12307;50.828;6.080;2023-03-01T05:47:01;1.30;;;1.20;;
24143;SDS011;12307;50.828;6.080;2023-03-01T05:49:27;1.40;;;1.30;;
24143;SDS011;12307;50.828;6.080;2023-03-01T05:51:53;1.58;;;1.48;;
24143;SDS011;12307;50.828;6.080;2023-03-01T05:54:20;1.60;;;1.42;;
24143;SDS011;12307;50.828;6.080;2023-03-01T05:56:46;1.60;;;1.30;;
24143;SDS011;12307;50.828;6.080;2023-03-01T05:59:12;1.25;;;1.15;;
24143;SDS011;12307;50.828;6.080;2023-03-01T06:01:40;1.60;;;1.20;;
24143;SDS011;12307;50.828;6.080;2023-03-01T06:04:06;1.83;;;1.45;;
24143;SDS011;12307;50.828;6.080;2023-03-01T06:06:33;1.30;;;1.20;;
24143;SDS011;12307;50.828;6.080;2023-03-01T06:08:59;1.50;;;1.40;;
24143;SDS011;12307;50.828;6.080;2023-03-01T06:11:26;1.65;;;1.50;;
24143;SDS011;12307;50.828;6.080;2023-03-01T06:13:52;1.60;;;1.50;;
24143;SDS011;12307;50.828;6.080;2023-03-01T06:16:18;1.35;;;1.25;;
24143;SDS011;12307;50.828;6.080;2023-03-01T06:18:43;1.55;;;1.45;;
24143;SDS011;12307;50.828;6.080;2023-03-01T06:21:09;1.40;;;1.27;;
24143;SDS011;12307;50.828;6.080;2023-03-01T06:23:35;1.77;;;1.50;;
24143;SDS011;12307;50.828;6.080;2023-03-01T06:26:04;1.60;;;1.50;;
24143;SDS011;12307;50.828;6.080;2023-03-01T06:28:32;1.20;;;1.10;;
24143;SDS011;12307;50.828;6.080;2023-03-01T06:30:57;1.88;;;1.63;;
24143;SDS011;12307;50.828;6.080;2023-03-01T06:33:23;1.75;;;1.27;;
24143;SDS011;12307;50.828;6.080;2023-03-01T06:35:49;2.03;;;1.17;;
24143;SDS011;12307;50.828;6.080;2023-03-01T06:38:15;1.98;;;1.50;;
24143;SDS011;12307;50.828;6.080;2023-03-01T06:40:42;1.35;;;1.25;;
24143;SDS011;12307;50.828;6.080;2023-03-01T06:43:08;1.80;;;1.42;;
24143;SDS011;12307;50.828;6.080;2023-03-01T06:45:35;1.65;;;1.40;;
24143;SDS011;12307;50.828;6.080;2023-03-01T06:48:02;1.58;;;1.42;;
24143;SDS011;12307;50.828;6.080;2023-03-01T06:50:29;1.45;;;1.33;;
24143;SDS011;12307;50.828;6.080;2023-03-01T06:52:55;1.63;;;1.40;;
24143;SDS011;12307;50.828;6.080;2023-03-01T06:55:21;1.67;;;1.38;;
24143;SDS011;12307;50.828;6.080;2023-03-01T06:57:47;1.83;;;1.55;;
24143;SDS011;12307;50.828;6.080;2023-03-01T07:00:13;2.15;;;1.45;;
24143;SDS011;12307;50.828;6.080;2023-03-01T07:02:41;1.33;;;1.23;;
24143;SDS011;12307;50.828;6.080;2023-03-01T07:05:06;1.30;;;1.20;;
24143;SDS011;12307;50.828;6.080;2023-03-01T07:07:32;2.03;;;1.40;;
24143;SDS011;12307;50.828;6.080;2023-03-01T07:09:58;1.65;;;1.30;;
24143;SDS011;12307;50.828;6.080;2023-03-01T07:12:24;1.25;;;1.15;;
24143;SDS011;12307;50.828;6.080;2023-03-01T07:14:49;1.50;;;1.38;;
24143;SDS011;12307;50.828;6.080;2023-03-01T07:17:15;1.15;;;1.05;;
24143;SDS011;12307;50.828;6.080;2023-03-01T07:19:42;1.70;;;1.40;;
24143;SDS011;12307;50.828;6.080;2023-03-01T07:22:07;1.60;;;1.38;;
24143;SDS011;12307;50.828;6.080;2023-03-01T07:24:34;1.40;;;1.30;;
24143;SDS011;12307;50.828;6.080;2023-03-01T07:26:59;1.40;;;1.20;;
24143;SDS011;12307;50.828;6.080;2023-03-01T07:29:25;1.75;;;1.30;;
24143;SDS011;12307;50.828;6.080;2023-03-01T07:31:51;1.50;;;1.40;;
24143;SDS011;12307;50.828;6.080;2023-03-01T07:34:17;1.42;;;1.30;;
24143;SDS011;12307;50.828;6.080;2023-03-01T07:36:44;1.40;;;1.27;;
24143;SDS011;12307;50.828;6.080;2023-03-01T07:39:10;1.40;;;1.27;;
24143;SDS011;12307;50.828;6.080;2023-03-01T07:41:36;1.60;;;1.40;;
24143;SDS011;12307;50.828;6.080;2023-03-01T07:44:02;1.45;;;1.20;;
24143;SDS011;12307;50.828;6.080;2023-03-01T07:46:28;1.55;;;1.35;;
24143;SDS011;12307;50.828;6.080;2023-03-01T07:48:53;1.58;;;1.38;;
24143;SDS011;12307;50.828;6.080;2023-03-01T07:51:19;2.03;;;1.55;;
24143;SDS011;12307;50.828;6.080;2023-03-01T07:53:46;1.42;;;1.33;;
24143;SDS011;12307;50.828;6.080;2023-03-01T07:56:16;1.60;;;1.50;;
24143;SDS011;12307;50.828;6.080;2023-03-01T07:58:43;1.63;;;1.50;;
24143;SDS011;12307;50.828;6.080;2023-03-01T08:01:10;1.40;;;1.30;;
24143;SDS011;12307;50.828;6.080;2023-03-01T08:03:37;2.08;;;1.60;;
24143;SDS011;12307;50.828;6.080;2023-03-01T08:06:04;1.40;;;1.30;;
24143;SDS011;12307;50.828;6.080;2023-03-01T08:08:31;1.23;;;1.13;;
24143;SDS011;12307;50.828;6.080;2023-03-01T08:10:58;1.52;;;1.30;;
24143;SDS011;12307;50.828;6.080;2023-03-01T08:13:25;1.55;;;1.40;;
24143;SDS011;12307;50.828;6.080;2023-03-01T08:15:51;1.70;;;1.60;;
24143;SDS011;12307;50.828;6.080;2023-03-01T08:18:17;1.42;;;1.33;;
24143;SDS011;12307;50.828;6.080;2023-03-01T08:20:43;1.50;;;1.40;;
24143;SDS011;12307;50.828;6.080;2023-03-01T08:23:10;1.45;;;1.35;;
24143;SDS011;12307;50.828;6.080;2023-03-01T08:25:36;1.65;;;1.30;;
24143;SDS011;12307;50.828;6.080;2023-03-01T08:28:03;1.75;;;1.50;;
24143;SDS011;12307;50.828;6.080;2023-03-01T08:30:30;1.50;;;1.40;;
24143;SDS011;12307;50.828;6.080;2023-03-01T08:32:56;1.70;;;1.60;;
24143;SDS011;12307;50.828;6.080;2023-03-01T08:35:22;2.20;;;1.75;;
24143;SDS011;12307;50.828;6.080;2023-03-01T08:37:48;1.98;;;1.60;;
24143;SDS011;12307;50.828;6.080;2023-03-01T08:40:14;2.20;;;1.75;;
24143;SDS011;12307;50.828;6.080;2023-03-01T08:42:40;2.10;;;1.70;;
24143;SDS011;12307;50.828;6.080;2023-03-01T08:45:08;1.63;;;1.52;;
24143;SDS011;12307;50.828;6.080;2023-03-01T08:47:35;2.03;;;1.40;;
24143;SDS011;12307;50.828;6.080;2023-03-01T08:50:01;1.60;;;1.48;;
24143;SDS011;12307;50.828;6.080;2023-03-01T08:52:27;1.65;;;1.50;;
24143;SDS011;12307;50.828;6.080;2023-03-01T08:54:55;1.50;;;1.40;;
24143;SDS011;12307;50.828;6.080;2023-03-01T08:57:21;3.03;;;1.70;;
24143;SDS011;12307;50.828;6.080;2023-03-01T08:59:46;2.10;;;1.60;;
24143;SDS011;12307;50.828;6.080;2023-03-01T09:02:14;1.67;;;1.58;;
24143;SDS011;12307;50.828;6.080;2023-03-01T09:04:41;1.50;;;1.40;;
24143;SDS011;12307;50.828;6.080;2023-03-01T09:07:07;2.08;;;1.83;;
24143;SDS011;12307;50.828;6.080;2023-03-01T09:09:34;2.50;;;1.90;;
24143;SDS011;12307;50.828;6.080;2023-03-01T09:12:00;4.07;;;2.20;;
24143;SDS011;12307;50.828;6.080;2023-03-01T09:14:26;2.40;;;2.17;;
24143;SDS011;12307;50.828;6.080;2023-03-01T09:16:52;2.90;;;2.35;;
24143;SDS011;12307;50.828;6.080;2023-03-01T09:19:19;4.18;;;2.60;;
24143;SDS011;12307;50.828;6.080;2023-03-01T09:21:45;3.03;;;2.72;;
24143;SDS011;12307;50.828;6.080;2023-03-01T09:24:17;3.22;;;2.80;;
24143;SDS011;12307;50.828;6.080;2023-03-01T09:26:44;2.75;;;2.53;;
24143;SDS011;12307;50.828;6.080;2023-03-01T09:29:13;4.10;;;2.55;;
24143;SDS011;12307;50.828;6.080;2023-03-01T09:31:39;2.70;;;2.50;;
24143;SDS011;12307;50.828;6.080;2023-03-01T09:34:06;3.15;;;2.53;;
24143;SDS011;12307;50.828;6.080;2023-03-01T09:36:33;3.15;;;2.50;;
24143;SDS011;12307;50.828;6.080;2023-03-01T09:38:59;2.78;;;2.42;;
24143;SDS011;12307;50.828;6.080;2023-03-01T09:41:33;3.00;;;2.30;;
24143;SDS011;12307;50.828;6.080;2023-03-01T09:44:10;2.35;;;2.15;;
24143;SDS011;12307;50.828;6.080;2023-03-01T09:46:42;2.90;;;2.60;;
24143;SDS011;12307;50.828;6.080;2023-03-01T09:49:10;2.72;;;2.33;;
24143;SDS011;12307;50.828;6.080;2023-03-01T09:51:43;2.25;;;2.05;;
24143;SDS011;12307;50.828;6.080;2023-03-01T09:54:19;2.60;;;2.38;;
24143;SDS011;12307;50.828;6.080;2023-03-01T09:56:46;2.47;;;2.28;;
24143;SDS011;12307;50.828;6.080;2023-03-01T09:59:19;2.33;;;2.05;;
24143;SDS011;12307;50.828;6.080;2023-03-01T10:01:52;2.55;;;2.05;;
24143;SDS011;12307;50.828;6.080;2023-03-01T10:04:26;2.58;;;2.38;;
24143;SDS011;12307;50.828;6.080;2023-03-01T10:07:12;2.50;;;2.30;;
24143;SDS011;12307;50.828;6.080;2023-03-01T10:09:52;2.67;;;2.45;;
24143;SDS011;12307;50.828;6.080;2023-03-01T10:12:18;3.13;;;2.25;;
24143;SDS011;12307;50.828;6.080;2023-03-01T10:14:50;3.60;;;2.53;;
24143;SDS011;12307;50.828;6.080;2023-03-01T10:17:24;2.65;;;2.35;;
24143;SDS011;12307;50.828;6.080;2023-03-01T10:19:55;4.57;;;2.40;;
24143;SDS011;12307;50.828;6.080;2023-03-01T10:22:32;2.42;;;2.22;;
24143;SDS011;12307;50.828;6.080;2023-03-01T10:24:58;3.55;;;2.50;;
24143;SDS011;12307;50.828;6.080;2023-03-01T10:27:29;2.58;;;2.35;;
24143;SDS011;12307;50.828;6.080;2023-03-01T10:30:04;4.57;;;2.47;;
24143;SDS011;12307;50.828;6.080;2023-03-01T10:32:36;3.17;;;2.63;;
24143;SDS011;12307;50.828;6.080;2023-03-01T10:35:14;4.40;;;3.40;;
24143;SDS011;12307;50.828;6.080;2023-03-01T10:37:47;4.90;;;3.35;;
24143;SDS011;12307;50.828;6.080;2023-03-01T10:40:22;4.43;;;3.45;;
24143;SDS011;12307;50.828;6.080;2023-03-01T10:42:48;5.75;;;3.38;;
24143;SDS011;12307;50.828;6.080;2023-03-01T10:45:16;5.50;;;3.40;;
24143;SDS011;12307;50.828;6.080;2023-03-01T10:47:59;4.75;;;3.80;;
24143;SDS011;12307;50.828;6.080;2023-03-01T10:50:29;4.53;;;3.03;;
24143;SDS011;12307;50.828;6.080;2023-03-01T10:52:58;3.53;;;2.88;;
24143;SDS011;12307;50.828;6.080;2023-03-01T10:55:27;3.75;;;3.10;;
24143;SDS011;12307;50.828;6.080;2023-03-01T10:58:06;4.13;;;3.70;;
24143;SDS011;12307;50.828;6.080;2023-03-01T11:00:47;3.83;;;3.15;;
24143;SDS011;12307;50.828;6.080;2023-03-01T11:03:17;3.72;;;3.05;;
24143;SDS011;12307;50.828;6.080;2023-03-01T11:08:46;3.58;;;3.10;;
24143;SDS011;12307;50.828;6.080;2023-03-01T11:11:15;4.07;;;3.20;;
24143;SDS011;12307;50.828;6.080;2023-03-01T11:13:56;4.50;;;3.30;;
24143;SDS011;12307;50.828;6.080;2023-03-01T11:16:28;3.97;;;3.17;;
24143;SDS011;12307;50.828;6.080;2023-03-01T11:18:57;3.90;;;3.13;;
24143;SDS011;12307;50.828;6.080;2023-03-01T11:21:25;3.95;;;3.55;;
24143;SDS011;12307;50.828;6.080;2023-03-01T11:23:56;4.72;;;3.17;;
24143;SDS011;12307;50.828;6.080;2023-03-01T11:26:24;5.40;;;3.67;;
24143;SDS011;12307;50.828;6.080;2023-03-01T11:28:53;6.82;;;3.72;;
24143;SDS011;12307;50.828;6.080;2023-03-01T11:31:22;4.32;;;3.70;;
24143;SDS011;12307;50.828;6.080;2023-03-01T11:33:49;4.38;;;3.80;;
24143;SDS011;12307;50.828;6.080;2023-03-01T11:36:23;4.85;;;3.80;;
24143;SDS011;12307;50.828;6.080;2023-03-01T11:38:55;4.63;;;3.80;;
24143;SDS011;12307;50.828;6.080;2023-03-01T11:41:26;6.53;;;4.05;;
24143;SDS011;12307;50.828;6.080;2023-03-01T11:43:57;4.95;;;3.90;;
24143;SDS011;12307;50.828;6.080;2023-03-01T11:46:29;4.63;;;3.70;;
24143;SDS011;12307;50.828;6.080;2023-03-01T11:49:08;6.00;;;3.78;;
24143;SDS011;12307;50.828;6.080;2023-03-01T11:51:45;4.70;;;3.85;;
24143;SDS011;12307;50.828;6.080;2023-03-01T11:54:24;4.80;;;3.95;;
24143;SDS011;12307;50.828;6.080;2023-03-01T11:56:57;5.13;;;3.90;;
24143;SDS011;12307;50.828;6.080;2023-03-01T11:59:33;6.57;;;3.80;;
24143;SDS011;12307;50.828;6.080;2023-03-01T12:05:51;5.05;;;3.92;;
24143;SDS011;12307;50.828;6.080;2023-03-01T12:08:38;5.78;;;3.97;;
24143;SDS011;12307;50.828;6.080;2023-03-01T12:11:11;5.85;;;4.50;;
24143;SDS011;12307;50.828;6.080;2023-03-01T12:13:53;4.55;;;4.05;;
24143;SDS011;12307;50.828;6.080;2023-03-01T12:16:35;5.88;;;4.55;;
24143;SDS011;12307;50.828;6.080;2023-03-01T12:19:26;5.35;;;4.15;;
24143;SDS011;12307;50.828;6.080;2023-03-01T12:22:03;8.65;;;4.32;;
24143;SDS011;12307;50.828;6.080;2023-03-01T12:24:45;4.95;;;3.85;;
24143;SDS011;12307;50.828;6.080;2023-03-01T12:27:30;5.22;;;3.58;;
24143;SDS011;12307;50.828;6.080;2023-03-01T12:30:10;6.00;;;4.30;;
24143;SDS011;12307;50.828;6.080;2023-03-01T12:32:47;5.05;;;4.22;;
24143;SDS011;12307;50.828;6.080;2023-03-01T12:38:22;5.35;;;4.00;;
24143;SDS011;12307;50.828;6.080;2023-03-01T12:41:06;6.20;;;3.80;;
24143;SDS011;12307;50.828;6.080;2023-03-01T12:43:47;5.00;;;3.95;;
24143;SDS011;12307;50.828;6.080;2023-03-01T12:46:25;6.55;;;4.05;;
24143;SDS011;12307;50.828;6.080;2023-03-01T12:49:02;6.20;;;4.13;;
24143;SDS011;12307;50.828;6.080;2023-03-01T12:51:33;5.20;;;3.63;;
24143;SDS011;12307;50.828;6.080;2023-03-01T12:54:01;5.43;;;3.78;;
24143;SDS011;12307;50.828;6.080;2023-03-01T12:56:36;4.75;;;3.42;;
24143;SDS011;12307;50.828;6.080;2023-03-01T12:59:07;4.47;;;3.53;;
24143;SDS011;12307;50.828;6.080;2023-03-01T13:01:40;5.55;;;3.63;;
24143;SDS011;12307;50.828;6.080;2023-03-01T13:04:15;4.03;;;3.42;;
24143;SDS011;12307;50.828;6.080;2023-03-01T13:06:53;6.22;;;3.70;;
24143;SDS011;12307;50.828;6.080;2023-03-01T13:09:27;4.10;;;3.45;;
24143;SDS011;12307;50.828;6.080;2023-03-01T13:11:58;4.38;;;3.20;;
24143;SDS011;12307;50.828;6.080;2023-03-01T13:14:38;6.07;;;3.60;;
24143;SDS011;12307;50.828;6.080;2023-03-01T13:19:58;4.03;;;3.00;;
24143;SDS011;12307;50.828;6.080;2023-03-01T13:22:29;3.72;;;3.30;;
24143;SDS011;12307;50.828;6.080;2023-03-01T13:27:44;4.80;;;3.40;;
24143;SDS011;12307;50.828;6.080;2023-03-01T13:36:05;4.85;;;2.90;;
24143;SDS011;12307;50.828;6.080;2023-03-01T13:38:37;3.28;;;2.80;;
24143;SDS011;12307;50.828;6.080;2023-03-01T13:41:09;3.80;;;2.97;;
24143;SDS011;12307;50.828;6.080;2023-03-01T13:43:35;3.97;;;2.53;;
24143;SDS011;12307;50.828;6.080;2023-03-01T13:46:09;3.83;;;2.97;;
24143;SDS011;12307;50.828;6.080;2023-03-01T13:48:40;3.33;;;2.85;;
24143;SDS011;12307;50.828;6.080;2023-03-01T13:51:07;3.88;;;2.90;;
24143;SDS011;12307;50.828;6.080;2023-03-01T13:53:35;2.75;;;2.28;;
24143;SDS011;12307;50.828;6.080;2023-03-01T13:56:07;3.42;;;2.80;;
24143;SDS011;12307;50.828;6.080;2023-03-01T13:58:43;3.47;;;2.83;;
24143;SDS011;12307;50.828;6.080;2023-03-01T14:01:20;3.58;;;2.95;;
24143;SDS011;12307;50.828;6.080;2023-03-01T14:03:47;3.65;;;2.85;;
24143;SDS011;12307;50.828;6.080;2023-03-01T14:06:14;2.67;;;2.45;;
24143;SDS011;12307;50.828;6.080;2023-03-01T14:08:43;3.58;;;2.90;;
24143;SDS011;12307;50.828;6.080;2023-03-01T14:14:18;4.53;;;3.40;;
24143;SDS011;12307;50.828;6.080;2023-03-01T14:16:58;3.58;;;2.95;;
24143;SDS011;12307;50.828;6.080;2023-03-01T14:19:31;2.92;;;2.63;;
24143;SDS011;12307;50.828;6.080;2023-03-01T14:21:59;2.72;;;2.45;;
24143;SDS011;12307;50.828;6.080;2023-03-01T14:24:29;3.08;;;2.63;;
24143;SDS011;12307;50.828;6.080;2023-03-01T14:26:57;4.03;;;2.70;;
24143;SDS011;12307;50.828;6.080;2023-03-01T14:29:26;3.58;;;2.70;;
24143;SDS011;12307;50.828;6.080;2023-03-01T14:32:09;3.70;;;2.60;;
24143;SDS011;12307;50.828;6.080;2023-03-01T14:34:36;3.75;;;2.85;;
24143;SDS011;12307;50.828;6.080;2023-03-01T14:37:10;3.40;;;2.70;;
24143;SDS011;12307;50.828;6.080;2023-03-01T14:39:36;3.40;;;2.55;;
24143;SDS011;12307;50.828;6.080;2023-03-01T14:42:03;3.67;;;2.60;;
24143;SDS011;12307;50.828;6.080;2023-03-01T14:44:30;4.90;;;2.83;;
24143;SDS011;12307;50.828;6.080;2023-03-01T14:46:58;3.65;;;2.53;;
24143;SDS011;12307;50.828;6.080;2023-03-01T14:49:29;3.28;;;2.70;;
24143;SDS011;12307;50.828;6.080;2023-03-01T14:51:57;3.03;;;2.60;;
24143;SDS011;12307;50.828;6.080;2023-03-01T14:54:27;3.53;;;2.85;;
24143;SDS011;12307;50.828;6.080;2023-03-01T14:56:57;2.97;;;2.60;;
24143;SDS011;12307;50.828;6.080;2023-03-01T14:59:26;3.72;;;2.67;;
24143;SDS011;12307;50.828;6.080;2023-03-01T15:01:53;3.53;;;2.85;;
24143;SDS011;12307;50.828;6.080;2023-03-01T15:04:21;2.97;;;2.50;;
24143;SDS011;12307;50.828;6.080;2023-03-01T15:06:51;3.08;;;2.42;;
24143;SDS011;12307;50.828;6.080;2023-03-01T15:09:17;3.53;;;3.00;;
24143;SDS011;12307;50.828;6.080;2023-03-01T15:11:44;3.17;;;2.60;;
24143;SDS011;12307;50.828;6.080;2023-03-01T15:14:26;3.28;;;2.58;;
24143;SDS011;12307;50.828;6.080;2023-03-01T15:17:14;3.15;;;2.85;;
24143;SDS011;12307;50.828;6.080;2023-03-01T15:19:48;3.28;;;2.80;;
24143;SDS011;12307;50.828;6.080;2023-03-01T15:22:16;2.92;;;2.60;;
24143;SDS011;12307;50.828;6.080;2023-03-01T15:24:45;2.95;;;2.60;;
24143;SDS011;12307;50.828;6.080;2023-03-01T15:27:14;3.70;;;2.60;;